createdAt,value
2022-08-20T00:02:56.200Z,20.94
2022-08-20T00:08:01.224Z,20.86
2022-08-20T00:13:04.712Z,20.80
2022-08-20T00:18:08.944Z,20.73
2022-08-20T00:23:16.934Z,20.69
2022-08-20T00:28:19.778Z,20.67
2022-08-20T00:33:24.919Z,20.63
2022-08-20T00:38:28.973Z,20.61
2022-08-20T00:43:35.162Z,20.56
2022-08-20T00:48:43.052Z,20.53
2022-08-20T00:53:47.810Z,20.49
2022-08-20T00:58:52.888Z,20.48
2022-08-20T01:03:56.541Z,20.43
2022-08-20T01:09:02.242Z,20.42
2022-08-20T01:14:22.705Z,20.39
2022-08-20T01:19:31.643Z,20.33
2022-08-20T01:24:40.050Z,20.32
2022-08-20T01:29:44.402Z,20.26
2022-08-20T01:34:47.347Z,20.28
2022-08-20T01:39:50.139Z,20.24
2022-08-20T01:44:54.331Z,20.20
2022-08-20T01:50:00.544Z,20.17
2022-08-20T01:55:04.042Z,20.17
2022-08-20T02:00:20.223Z,20.13
2022-08-20T02:05:25.307Z,20.10
2022-08-20T02:10:34.129Z,20.10
2022-08-20T02:15:39.826Z,20.11
2022-08-20T02:20:46.955Z,20.10
2022-08-20T02:25:49.815Z,20.09
2022-08-20T02:30:56.150Z,20.04
2022-08-20T02:35:58.955Z,20.03
2022-08-20T02:41:02.095Z,20.06
2022-08-20T02:46:07.346Z,20.06
2022-08-20T02:51:10.552Z,20.04
2022-08-20T02:56:13.770Z,20.06
2022-08-20T03:01:19.442Z,20.05
2022-08-20T03:06:22.326Z,20.04
2022-08-20T03:11:25.118Z,20.04
2022-08-20T03:16:29.278Z,20.04
2022-08-20T03:21:32.316Z,20.05
2022-08-20T03:26:35.127Z,20.00
2022-08-20T03:31:39.504Z,19.94
2022-08-20T03:36:42.737Z,19.99
2022-08-20T03:41:45.466Z,19.92
2022-08-20T03:46:49.577Z,19.92
2022-08-20T03:51:57.839Z,19.92
2022-08-20T03:57:12.465Z,19.86
2022-08-20T04:02:17.096Z,19.86
2022-08-20T04:07:25.621Z,19.86
2022-08-20T04:12:28.601Z,19.86
2022-08-20T04:17:33.473Z,19.84
2022-08-20T04:22:36.879Z,19.83
2022-08-20T04:27:42.240Z,19.78
2022-08-20T04:32:46.316Z,19.73
2022-08-20T04:37:49.702Z,19.71
2022-08-20T04:42:53.932Z,19.65
2022-08-20T04:47:58.349Z,19.65
2022-08-20T04:53:01.177Z,19.66
2022-08-20T04:58:05.635Z,19.69
2022-08-20T05:03:09.704Z,19.68
2022-08-20T05:08:20.171Z,19.70
2022-08-20T05:13:27.277Z,19.72
2022-08-20T05:18:33.418Z,19.75
2022-08-20T05:23:40.575Z,19.70
2022-08-20T05:28:58.124Z,19.82
2022-08-20T05:34:04.044Z,19.90
2022-08-20T05:39:06.931Z,20.05
2022-08-20T05:44:13.487Z,20.11
2022-08-20T05:49:20.485Z,20.38
2022-08-20T05:54:23.893Z,20.50
2022-08-20T05:59:27.596Z,20.62
2022-08-20T06:04:32.122Z,20.76
2022-08-20T06:09:36.221Z,20.81
2022-08-20T06:14:39.137Z,20.96
2022-08-20T06:19:44.831Z,20.93
2022-08-20T06:24:48.069Z,20.95
2022-08-20T06:29:52.006Z,20.98
2022-08-20T06:34:56.103Z,20.89
2022-08-20T06:40:03.805Z,20.83
2022-08-20T06:45:07.850Z,20.76
2022-08-20T06:50:15.107Z,20.66
2022-08-20T06:55:18.486Z,20.51
2022-08-20T07:00:21.245Z,20.76
2022-08-20T07:05:26.639Z,20.77
2022-08-20T07:10:30.567Z,20.99
2022-08-20T07:15:33.583Z,21.00
2022-08-20T07:20:40.498Z,21.08
2022-08-20T07:25:44.885Z,21.40
2022-08-20T07:31:13.844Z,21.77
2022-08-20T07:36:20.329Z,21.53
2022-08-20T07:41:23.133Z,21.41
2022-08-20T07:46:31.073Z,21.26
2022-08-20T07:51:37.373Z,21.29
2022-08-20T07:56:40.100Z,21.12
2022-08-20T08:01:43.161Z,21.59
2022-08-20T08:06:47.466Z,21.86
2022-08-20T08:11:51.756Z,21.90
2022-08-20T08:16:57.281Z,22.07
2022-08-20T08:22:01.432Z,22.63
2022-08-20T08:27:04.652Z,22.71
2022-08-20T08:32:08.585Z,22.02
2022-08-20T08:37:12.729Z,21.82
2022-08-20T08:42:27.536Z,22.56
2022-08-20T08:47:35.894Z,23.62
2022-08-20T08:52:41.311Z,23.81
2022-08-20T08:57:44.034Z,23.95
2022-08-20T09:02:57.249Z,24.77
2022-08-20T09:08:03.893Z,24.20
2022-08-20T09:13:06.692Z,24.64
2022-08-20T09:18:09.475Z,24.49
2022-08-20T09:23:13.545Z,24.68
2022-08-20T09:28:16.361Z,24.77
2022-08-20T09:33:19.578Z,25.65
2022-08-20T09:38:23.658Z,25.73
2022-08-20T09:43:26.435Z,25.36
2022-08-20T09:48:31.969Z,25.34
2022-08-20T09:53:36.593Z,26.50
2022-08-20T09:58:48.474Z,26.53
2022-08-20T10:03:51.876Z,26.57
2022-08-20T10:08:55.962Z,25.65
2022-08-20T10:13:58.922Z,25.46
2022-08-20T10:19:01.772Z,25.12
2022-08-20T10:24:06.206Z,26.58
2022-08-20T10:29:08.957Z,26.98
2022-08-20T10:34:11.783Z,26.15
2022-08-20T10:39:16.517Z,25.69
2022-08-20T10:44:19.255Z,26.58
2022-08-20T10:49:22.046Z,26.87
2022-08-20T10:54:26.211Z,26.51
2022-08-20T10:59:29.000Z,27.15
2022-08-20T11:04:31.729Z,26.88
2022-08-20T11:09:35.818Z,27.37
2022-08-20T11:14:38.693Z,26.01
2022-08-20T11:19:43.204Z,25.75
2022-08-20T11:24:48.141Z,26.50
2022-08-20T11:29:51.144Z,27.57
2022-08-20T11:34:53.917Z,27.91
2022-08-20T11:39:58.122Z,28.36
2022-08-20T11:45:00.886Z,29.32
2022-08-20T11:50:06.587Z,28.87
2022-08-20T11:55:14.327Z,29.72
2022-08-20T12:00:21.754Z,30.11
2022-08-20T12:05:35.205Z,30.35
2022-08-20T12:10:40.179Z,28.74
2022-08-20T12:15:43.754Z,30.30
2022-08-20T12:20:46.522Z,29.91
2022-08-20T12:25:54.903Z,31.30
2022-08-20T12:30:58.218Z,32.26
2022-08-20T12:36:00.971Z,33.04
2022-08-20T12:41:05.114Z,32.82
2022-08-20T12:46:07.923Z,34.01
2022-08-20T12:51:10.696Z,34.08
2022-08-20T12:56:14.775Z,34.98
2022-08-20T13:01:17.655Z,36.56
2022-08-20T13:06:20.474Z,36.41
2022-08-20T13:11:26.964Z,36.00
2022-08-20T13:16:29.723Z,36.17
2022-08-20T13:21:32.507Z,37.14
2022-08-20T13:26:36.635Z,37.54
2022-08-20T13:31:41.787Z,37.89
2022-08-20T13:36:44.519Z,38.41
2022-08-20T14:59:40.290Z,43.57
2022-08-20T15:04:45.360Z,43.08
2022-08-20T15:09:56.203Z,44.64
2022-08-20T15:14:59.769Z,44.57
2022-08-20T15:20:20.970Z,46.05
2022-08-20T15:25:26.598Z,45.95
2022-08-20T15:30:31.221Z,45.62
2022-08-20T15:35:35.663Z,45.11
2022-08-20T15:40:38.514Z,46.48
2022-08-20T15:45:41.249Z,45.73
2022-08-20T15:51:03.527Z,45.89
2022-08-20T15:56:18.013Z,44.65
2022-08-20T16:01:28.547Z,40.74
2022-08-20T16:06:34.710Z,41.08
2022-08-20T16:11:48.283Z,40.07
2022-08-20T16:16:57.923Z,38.44
2022-08-20T16:22:07.392Z,40.10
2022-08-20T16:27:17.276Z,38.59
2022-08-20T16:32:36.606Z,36.20
2022-08-20T16:37:48.258Z,35.92
2022-08-20T16:42:53.223Z,34.71
2022-08-20T16:48:01.910Z,33.38
2022-08-20T16:53:06.362Z,34.03
2022-08-20T16:58:09.130Z,32.93
2022-08-20T17:03:31.416Z,31.06
2022-08-20T17:08:51.169Z,29.84
2022-08-20T17:14:08.311Z,29.52
2022-08-20T17:19:19.118Z,29.08
2022-08-20T17:24:27.352Z,29.39
2022-08-20T17:29:34.438Z,28.23
2022-08-20T17:34:45.518Z,26.69
2022-08-20T17:39:51.652Z,25.80
2022-08-20T17:44:56.870Z,25.25
2022-08-20T17:50:04.220Z,24.95
2022-08-20T17:55:09.691Z,24.67
2022-08-20T18:00:15.923Z,24.42
2022-08-20T18:05:21.403Z,24.13
2022-08-20T18:10:27.987Z,23.84
2022-08-20T18:15:35.046Z,23.53
2022-08-20T18:20:50.157Z,23.28
2022-08-20T18:25:58.422Z,23.09
2022-08-20T18:31:04.425Z,22.89
2022-08-20T18:36:15.267Z,22.67
2022-08-20T18:41:30.957Z,22.46
2022-08-20T18:46:34.319Z,22.25
2022-08-20T18:51:41.323Z,22.09
2022-08-20T18:56:45.498Z,21.89
2022-08-20T19:01:50.210Z,21.73
2022-08-20T19:06:58.075Z,21.57
2022-08-20T19:12:21.741Z,21.41
2022-08-20T19:17:38.259Z,21.23
2022-08-20T19:22:43.341Z,21.09
2022-08-20T19:27:47.442Z,20.95
2022-08-20T19:32:53.087Z,20.83
2022-08-20T19:37:56.069Z,20.72
2022-08-20T19:43:04.759Z,20.59
2022-08-20T19:48:28.735Z,20.48
2022-08-20T19:53:33.395Z,20.23
2022-08-20T19:58:37.775Z,19.81
2022-08-20T20:03:40.522Z,19.64
2022-08-20T20:08:50.947Z,19.44
2022-08-20T20:13:55.453Z,19.28
2022-08-20T20:19:22.717Z,19.16
2022-08-20T20:24:25.388Z,18.97
2022-08-20T20:29:35.797Z,18.75
2022-08-20T20:34:54.943Z,18.55
2022-08-20T20:40:04.855Z,18.29
2022-08-20T20:45:20.035Z,18.11
2022-08-20T20:50:34.183Z,18.05
2022-08-20T20:55:39.170Z,17.96
2022-08-20T21:00:43.271Z,17.86
2022-08-20T21:05:46.202Z,17.75
2022-08-20T21:10:49.847Z,17.59
2022-08-20T21:15:54.030Z,17.40
2022-08-20T21:20:56.784Z,17.17
2022-08-20T21:26:00.610Z,17.09
2022-08-20T21:31:04.920Z,17.11
2022-08-20T21:36:08.104Z,16.99
2022-08-20T21:41:11.284Z,16.85
2022-08-20T21:46:15.339Z,16.74
2022-08-20T21:51:18.035Z,16.65
2022-08-20T21:56:21.042Z,16.53
2022-08-20T22:01:26.862Z,16.43
2022-08-20T22:06:29.639Z,16.29
2022-08-20T22:11:33.334Z,16.12
2022-08-20T22:16:37.638Z,16.17
2022-08-20T22:21:45.207Z,16.10
2022-08-20T22:26:47.991Z,15.89
2022-08-20T22:31:52.720Z,15.91
2022-08-20T22:36:58.139Z,15.89
2022-08-20T22:42:00.886Z,15.76
2022-08-20T22:47:08.500Z,15.74
2022-08-20T22:52:11.906Z,15.50
2022-08-20T22:57:15.171Z,15.36
2022-08-20T23:02:25.146Z,15.38
2022-08-20T23:07:28.031Z,15.36
2022-08-20T23:12:31.249Z,15.22
2022-08-20T23:17:37.923Z,15.16
2022-08-20T23:22:40.751Z,15.05
2022-08-20T23:27:45.726Z,14.94
2022-08-20T23:32:49.986Z,14.93
2022-08-20T23:37:56.750Z,14.88
2022-08-20T23:43:00.280Z,14.81
2022-08-20T23:48:04.934Z,14.69
2022-08-20T23:53:07.731Z,14.59
2022-08-20T23:58:10.707Z,14.54
